METAR Data
IDs: Format: Raw Decoded Include TAF

Data at: 1003 UTC 28 Sep 2021

ZLXY 280900Z 09003MPS 050V130 9999 FEW030 22/18 Q1014 NOSIG